Aviation Digital Data Service (ADDS)

Output produced by METARs form (1242 UTC 23 March 2019)
found at http://www.aviationweather.gov/metar/data/
 
KTUS 231127Z 2312/2412 14005KT P6SM SCT250 
     FM232000 29009KT P6SM FEW250 
     FM240400 17004KT P6SM SCT250